createdAt,value
2023-02-02T00:02:04.260Z,4.70
2023-02-02T00:04:33.740Z,4.60
2023-02-02T00:07:02.758Z,4.60
2023-02-02T00:09:32.564Z,4.60
2023-02-02T00:12:01.841Z,4.70
2023-02-02T00:14:29.969Z,4.60
2023-02-02T00:16:59.441Z,4.60
2023-02-02T00:19:30.396Z,4.50
2023-02-02T00:21:58.894Z,4.50
2023-02-02T00:24:26.920Z,4.60
2023-02-02T00:26:56.153Z,4.60
2023-02-02T00:29:26.372Z,4.60
2023-02-02T00:31:54.682Z,4.60
2023-02-02T00:34:24.298Z,4.60
2023-02-02T00:36:52.549Z,4.50
2023-02-02T00:39:22.362Z,4.50
2023-02-02T00:41:50.620Z,4.50
2023-02-02T00:44:36.107Z,4.40
2023-02-02T00:47:04.769Z,4.40
2023-02-02T00:49:33.991Z,4.40
2023-02-02T00:52:01.818Z,4.30
2023-02-02T00:54:29.714Z,4.40
2023-02-02T00:56:57.610Z,4.40
2023-02-02T00:59:25.436Z,4.30
2023-02-02T01:01:53.774Z,4.30
2023-02-02T01:04:21.805Z,4.30
2023-02-02T01:06:50.950Z,4.20
2023-02-02T01:09:18.841Z,4.20
2023-02-02T01:11:46.716Z,4.20
2023-02-02T01:14:14.514Z,4.10
2023-02-02T01:16:42.376Z,4.10
2023-02-02T01:19:10.516Z,4.20
2023-02-02T01:21:38.335Z,4.10
2023-02-02T01:24:08.207Z,4.20
2023-02-02T01:26:36.253Z,4.20
2023-02-02T01:29:04.163Z,4.10
2023-02-02T01:31:32.031Z,4.10
2023-02-02T01:33:59.932Z,4.10
2023-02-02T01:36:27.720Z,4.10
2023-02-02T01:38:55.639Z,4.10
2023-02-02T01:41:26.626Z,4.20
2023-02-02T01:43:57.376Z,4.20
2023-02-02T01:46:27.545Z,4.30
2023-02-02T01:49:00.738Z,4.30
2023-02-02T01:51:33.882Z,4.30
2023-02-02T01:54:03.620Z,4.40
2023-02-02T01:56:35.860Z,4.30
2023-02-02T01:59:04.502Z,4.30
2023-02-02T02:01:32.412Z,4.30
2023-02-02T02:04:00.611Z,4.30
2023-02-02T02:06:29.946Z,4.30
2023-02-02T02:09:00.483Z,4.30
2023-02-02T02:11:28.458Z,4.40
2023-02-02T02:14:17.365Z,4.40
2023-02-02T02:16:59.538Z,4.40
2023-02-02T02:20:32.171Z,4.40
2023-02-02T02:23:37.710Z,4.30
2023-02-02T02:26:35.455Z,4.40
2023-02-02T02:29:28.137Z,4.30
2023-02-02T02:32:31.723Z,4.30
2023-02-02T02:35:06.259Z,4.30
2023-02-02T02:37:40.797Z,4.40
2023-02-02T02:40:16.967Z,4.30
2023-02-02T02:42:48.424Z,4.30
2023-02-02T02:45:18.828Z,4.30
2023-02-02T02:47:48.208Z,4.40
2023-02-02T02:50:18.017Z,4.40
2023-02-02T02:52:48.623Z,4.30
2023-02-02T02:55:16.594Z,4.40
2023-02-02T02:57:57.208Z,4.40
2023-02-02T03:00:37.942Z,4.40
2023-02-02T03:03:12.305Z,4.40
2023-02-02T03:05:58.879Z,4.40
2023-02-02T03:08:32.789Z,4.40
2023-02-02T03:11:02.232Z,4.40
2023-02-02T03:13:31.552Z,4.50
2023-02-02T03:15:59.745Z,4.40
2023-02-02T03:18:30.328Z,4.40
2023-02-02T03:20:59.865Z,4.30
2023-02-02T03:23:28.272Z,4.40
2023-02-02T03:25:56.939Z,4.40
2023-02-02T03:28:26.020Z,4.40
2023-02-02T03:30:55.588Z,4.30
2023-02-02T03:33:24.336Z,4.30
2023-02-02T03:35:52.395Z,4.20
2023-02-02T03:38:21.619Z,4.20
2023-02-02T03:40:49.653Z,4.10
2023-02-02T03:43:21.686Z,4.00
2023-02-02T03:45:49.589Z,4.00
2023-02-02T03:48:17.424Z,4.00
2023-02-02T03:50:45.268Z,4.10
2023-02-02T03:53:13.094Z,4.10
2023-02-02T03:55:42.326Z,4.20
2023-02-02T03:58:10.212Z,4.10
2023-02-02T04:00:38.315Z,4.10
2023-02-02T04:03:06.450Z,4.20
2023-02-02T04:05:34.313Z,4.20
2023-02-02T04:08:02.282Z,4.20
2023-02-02T04:10:30.090Z,4.30
2023-02-02T04:12:59.256Z,4.20
2023-02-02T04:15:27.670Z,4.20
2023-02-02T04:17:55.568Z,4.20
2023-02-02T04:20:23.391Z,4.30
2023-02-02T04:22:51.560Z,4.30
2023-02-02T04:25:19.351Z,4.20
2023-02-02T04:27:47.196Z,4.40
2023-02-02T04:30:16.665Z,4.40
2023-02-02T04:32:44.405Z,4.30
2023-02-02T04:35:12.273Z,4.30
2023-02-02T04:37:40.120Z,4.40
2023-02-02T04:40:09.221Z,4.30
2023-02-02T04:42:37.020Z,4.20
2023-02-02T04:45:05.475Z,4.20
2023-02-02T04:47:34.598Z,4.20
2023-02-02T04:50:02.527Z,4.30
2023-02-02T04:52:30.497Z,4.30
2023-02-02T04:54:58.295Z,4.40
2023-02-02T04:57:26.192Z,4.40
2023-02-02T04:59:54.089Z,4.40
2023-02-02T05:02:21.892Z,4.40
2023-02-02T05:04:51.212Z,4.50
2023-02-02T05:07:19.194Z,4.50
2023-02-02T05:09:47.121Z,4.50
2023-02-02T05:12:14.929Z,4.60
2023-02-02T05:14:42.786Z,4.50
2023-02-02T05:17:10.597Z,4.50
2023-02-02T05:19:38.453Z,4.50
2023-02-02T05:22:07.727Z,4.50
2023-02-02T05:24:35.668Z,4.60
2023-02-02T05:27:03.454Z,4.60
2023-02-02T05:29:31.942Z,4.60
2023-02-02T05:31:59.901Z,4.60
2023-02-02T05:34:27.735Z,4.60
2023-02-02T05:36:55.613Z,4.50
2023-02-02T05:39:24.869Z,4.50
2023-02-02T05:41:52.675Z,4.60
2023-02-02T05:44:20.518Z,4.50
2023-02-02T05:46:48.326Z,4.50
2023-02-02T05:49:16.123Z,4.50
2023-02-02T05:51:46.798Z,4.50
2023-02-02T05:54:20.054Z,4.50
2023-02-02T05:56:53.035Z,4.50
2023-02-02T05:59:24.158Z,4.50
2023-02-02T06:01:51.953Z,4.50
2023-02-02T06:04:19.849Z,4.50
2023-02-02T06:06:48.875Z,4.50
2023-02-02T06:09:16.747Z,4.60
2023-02-02T06:11:44.811Z,4.60
2023-02-02T06:14:14.012Z,4.50
2023-02-02T06:16:41.812Z,4.60
2023-02-02T06:19:09.618Z,4.60
2023-02-02T06:21:37.429Z,4.60
2023-02-02T06:24:05.759Z,4.50
2023-02-02T06:26:34.374Z,4.50
2023-02-02T06:29:02.192Z,4.50
2023-02-02T06:31:31.474Z,4.50
2023-02-02T06:34:00.040Z,4.50
2023-02-02T06:36:29.167Z,4.50
2023-02-02T06:38:58.598Z,4.50
2023-02-02T06:41:26.737Z,4.50
2023-02-02T06:43:54.478Z,4.50
2023-02-02T06:46:22.309Z,4.60
2023-02-02T06:48:51.524Z,4.50
2023-02-02T06:51:19.893Z,4.50
2023-02-02T06:53:49.618Z,4.60
2023-02-02T06:56:18.130Z,4.50
2023-02-02T06:58:46.159Z,4.60
2023-02-02T07:01:15.081Z,4.60
2023-02-02T07:03:43.246Z,4.60
2023-02-02T07:06:17.850Z,4.50
2023-02-02T07:08:46.076Z,4.50
2023-02-02T07:11:25.370Z,4.50
2023-02-02T07:13:53.208Z,4.50
2023-02-02T07:16:21.086Z,4.60
2023-02-02T07:18:49.354Z,4.60
2023-02-02T07:21:21.055Z,4.60
2023-02-02T07:23:49.530Z,4.70
2023-02-02T07:26:19.119Z,4.70
2023-02-02T07:28:47.565Z,4.70
2023-02-02T07:31:17.193Z,4.80
2023-02-02T07:33:46.224Z,4.80
2023-02-02T07:36:16.439Z,4.70
2023-02-02T07:38:46.842Z,4.80
2023-02-02T07:41:16.180Z,4.70
2023-02-02T07:43:44.108Z,4.70
2023-02-02T07:46:14.231Z,4.70
2023-02-02T07:48:42.194Z,4.70
2023-02-02T07:51:12.335Z,4.70
2023-02-02T07:53:40.612Z,4.80
2023-02-02T07:56:12.224Z,4.80
2023-02-02T07:58:40.175Z,4.70
2023-02-02T08:01:10.079Z,4.70
2023-02-02T08:03:40.525Z,4.70
2023-02-02T08:06:12.344Z,4.70
2023-02-02T08:08:40.240Z,4.60
2023-02-02T08:11:12.127Z,4.60
2023-02-02T08:13:40.508Z,4.60
2023-02-02T08:16:08.948Z,4.70
2023-02-02T08:18:38.091Z,4.70
2023-02-02T08:21:08.340Z,4.70
2023-02-02T08:23:36.966Z,4.70
2023-02-02T08:26:12.239Z,4.70
2023-02-02T08:28:41.334Z,4.70
2023-02-02T08:31:11.701Z,4.70
2023-02-02T08:33:40.099Z,4.70
2023-02-02T08:36:12.944Z,4.70
2023-02-02T08:38:40.829Z,4.60
2023-02-02T08:41:12.265Z,4.70
2023-02-02T08:43:40.792Z,4.70
2023-02-02T08:46:10.330Z,4.60
2023-02-02T08:48:38.885Z,4.70
2023-02-02T08:51:07.814Z,4.60
2023-02-02T08:53:35.953Z,4.60
2023-02-02T08:56:05.461Z,4.60
2023-02-02T08:58:35.267Z,4.60
2023-02-02T09:01:07.389Z,4.60
2023-02-02T09:03:35.373Z,4.60
2023-02-02T09:06:07.451Z,4.50
2023-02-02T09:08:35.380Z,4.50
2023-02-02T09:11:08.028Z,4.50
2023-02-02T09:13:38.036Z,4.70
2023-02-02T09:16:08.210Z,4.70
2023-02-02T09:18:36.225Z,4.70
2023-02-02T09:21:07.257Z,4.60
2023-02-02T09:23:36.760Z,4.70
2023-02-02T09:26:12.280Z,4.60
2023-02-02T09:28:42.538Z,4.70
2023-02-02T09:31:10.773Z,4.70
2023-02-02T09:33:39.472Z,4.50
2023-02-02T09:36:09.752Z,4.60
2023-02-02T09:38:37.858Z,4.70
2023-02-02T09:41:29.320Z,4.70
2023-02-02T09:44:05.340Z,4.70
2023-02-02T09:46:43.690Z,4.90
2023-02-02T09:49:15.302Z,4.80
2023-02-02T09:51:47.233Z,4.90
2023-02-02T09:54:21.671Z,4.80
2023-02-02T09:56:55.637Z,4.90
2023-02-02T09:59:27.862Z,4.80
2023-02-02T10:01:58.875Z,4.90
2023-02-02T10:04:33.228Z,4.90
2023-02-02T10:07:09.110Z,4.90
2023-02-02T10:09:43.620Z,5.00
2023-02-02T10:12:22.364Z,5.00
2023-02-02T10:14:58.705Z,5.00
2023-02-02T10:17:43.135Z,5.00
2023-02-02T10:20:20.660Z,5.10
2023-02-02T10:22:49.111Z,5.10
2023-02-02T10:25:17.741Z,5.10
2023-02-02T10:27:56.755Z,4.90
2023-02-02T10:30:36.340Z,4.90
2023-02-02T10:33:07.271Z,5.10
2023-02-02T10:35:42.642Z,4.90
2023-02-02T10:38:20.348Z,5.00
2023-02-02T10:41:00.443Z,5.10
2023-02-02T10:43:49.026Z,4.90
2023-02-02T10:46:23.657Z,5.00
2023-02-02T10:48:53.094Z,5.00
2023-02-02T10:51:25.415Z,5.20
2023-02-02T10:53:54.668Z,5.30
2023-02-02T10:56:30.207Z,5.30
2023-02-02T10:59:06.128Z,5.20
2023-02-02T11:01:35.345Z,5.10
2023-02-02T11:04:19.871Z,5.10
2023-02-02T11:06:50.429Z,5.20
2023-02-02T11:09:21.719Z,5.10
2023-02-02T11:11:53.261Z,5.10
2023-02-02T11:14:30.731Z,5.20
2023-02-02T11:17:04.631Z,5.20
2023-02-02T11:19:34.068Z,5.20
2023-02-02T11:22:03.967Z,5.20
2023-02-02T11:24:36.614Z,5.30
2023-02-02T11:27:08.071Z,5.40
2023-02-02T11:29:44.368Z,5.40
2023-02-02T11:32:28.741Z,5.40
2023-02-02T11:35:22.274Z,5.40
2023-02-02T11:37:59.254Z,5.50
2023-02-02T11:40:33.727Z,5.50
2023-02-02T11:43:04.881Z,5.40
2023-02-02T11:45:36.663Z,5.30
2023-02-02T11:48:18.543Z,5.30
2023-02-02T11:50:49.624Z,5.30
2023-02-02T11:53:25.813Z,5.30
2023-02-02T11:55:55.118Z,5.30
2023-02-02T11:58:27.466Z,5.30
2023-02-02T12:00:58.437Z,5.30
2023-02-02T12:03:33.748Z,5.30
2023-02-02T12:06:03.045Z,5.40
2023-02-02T12:08:31.486Z,5.30
2023-02-02T12:11:02.174Z,5.20
2023-02-02T12:13:44.494Z,5.10
2023-02-02T12:16:40.618Z,5.00
2023-02-02T12:19:35.544Z,5.10
2023-02-02T12:22:13.623Z,5.00
2023-02-02T12:24:53.306Z,5.00
2023-02-02T12:27:31.752Z,5.00
2023-02-02T12:30:18.631Z,4.90
2023-02-02T12:33:07.968Z,4.90
2023-02-02T12:35:58.332Z,5.00
2023-02-02T12:38:37.638Z,4.90
2023-02-02T12:41:22.568Z,4.80
2023-02-02T12:43:56.576Z,4.90
2023-02-02T12:46:38.149Z,4.90
2023-02-02T12:49:34.358Z,4.80
2023-02-02T12:52:16.706Z,4.90
2023-02-02T12:54:58.977Z,4.90
2023-02-02T12:57:39.732Z,4.80
2023-02-02T13:00:27.111Z,4.80
2023-02-02T13:03:07.898Z,4.80
2023-02-02T13:05:54.626Z,4.70
2023-02-02T13:08:28.425Z,4.80
2023-02-02T13:11:01.406Z,4.80
2023-02-02T13:13:33.747Z,4.70
2023-02-02T13:16:07.099Z,4.70
2023-02-02T13:18:40.484Z,4.60
2023-02-02T13:21:15.283Z,4.60
2023-02-02T13:23:47.091Z,4.60
2023-02-02T13:26:20.043Z,4.60
2023-02-02T13:28:53.443Z,4.60
2023-02-02T13:31:26.712Z,4.60
2023-02-02T13:34:05.808Z,4.60
2023-02-02T13:36:38.839Z,4.60
2023-02-02T13:39:18.590Z,4.50
2023-02-02T13:41:48.437Z,4.60
2023-02-02T13:44:21.408Z,4.60
2023-02-02T13:46:56.385Z,4.60
2023-02-02T13:49:29.298Z,4.60
2023-02-02T13:52:10.257Z,4.60
2023-02-02T13:55:21.203Z,4.50
2023-02-02T13:58:23.421Z,4.50
2023-02-02T14:00:54.052Z,4.40
2023-02-02T14:03:38.452Z,4.50
2023-02-02T14:06:13.062Z,4.50
2023-02-02T14:08:49.055Z,4.50
2023-02-02T14:11:28.256Z,4.50
2023-02-02T14:14:17.013Z,4.50
2023-02-02T14:16:51.064Z,4.40
2023-02-02T14:19:34.959Z,4.50
2023-02-02T14:22:18.588Z,4.50
2023-02-02T14:24:51.269Z,4.50
2023-02-02T14:27:54.189Z,4.40
2023-02-02T14:30:28.501Z,4.40
2023-02-02T14:33:34.189Z,4.40
2023-02-02T14:36:05.163Z,4.30
2023-02-02T14:39:06.171Z,4.40
2023-02-02T14:42:24.519Z,4.50
2023-02-02T14:45:16.972Z,4.40
2023-02-02T14:47:50.801Z,4.50
2023-02-02T14:50:25.799Z,4.40
2023-02-02T14:53:06.323Z,4.40
2023-02-02T14:55:34.830Z,4.50
2023-02-02T14:58:06.499Z,4.50
2023-02-02T15:00:36.224Z,4.50
2023-02-02T15:03:36.571Z,4.50
2023-02-02T15:06:08.536Z,4.50
2023-02-02T15:08:37.741Z,4.40
2023-02-02T15:11:27.621Z,4.40
2023-02-02T15:14:07.162Z,4.40
2023-02-02T15:16:38.525Z,4.30
2023-02-02T15:19:16.403Z,4.40
2023-02-02T15:21:48.739Z,4.40
2023-02-02T15:24:26.129Z,4.40
2023-02-02T15:26:55.399Z,4.40
2023-02-02T15:29:33.171Z,4.40
2023-02-02T15:32:02.258Z,4.40
2023-02-02T15:34:40.171Z,4.40
2023-02-02T15:37:13.251Z,4.40
2023-02-02T15:39:47.241Z,4.40
2023-02-02T15:42:36.046Z,4.30
2023-02-02T15:45:04.401Z,4.40
2023-02-02T15:47:35.506Z,4.40
2023-02-02T15:50:05.151Z,4.40
2023-02-02T15:52:35.437Z,4.40
2023-02-02T15:55:19.513Z,4.40
2023-02-02T15:57:47.482Z,4.40
2023-02-02T16:00:27.789Z,4.40
2023-02-02T16:03:01.772Z,4.30
2023-02-02T16:05:44.044Z,4.30
2023-02-02T16:08:18.860Z,4.30
2023-02-02T16:10:49.868Z,4.30
2023-02-02T16:13:29.415Z,4.30
2023-02-02T16:15:59.390Z,4.40
2023-02-02T16:18:27.645Z,4.30
2023-02-02T16:20:56.842Z,4.30
2023-02-02T16:23:31.146Z,4.40
2023-02-02T16:26:03.588Z,4.40
2023-02-02T16:28:32.455Z,4.30
2023-02-02T16:31:01.727Z,4.30
2023-02-02T16:33:34.984Z,4.30
2023-02-02T16:36:04.452Z,4.30
2023-02-02T16:38:37.342Z,4.40
2023-02-02T16:41:08.818Z,4.30
2023-02-02T16:43:37.900Z,4.40
2023-02-02T16:46:09.802Z,4.40
2023-02-02T16:48:39.782Z,4.40
2023-02-02T16:51:24.570Z,4.40
2023-02-02T16:54:02.855Z,4.40
2023-02-02T16:56:36.372Z,4.50
2023-02-02T16:59:09.519Z,4.50
2023-02-02T17:01:41.455Z,4.50
2023-02-02T17:04:20.009Z,4.50
2023-02-02T17:06:52.741Z,4.50
2023-02-02T17:09:37.310Z,4.40
2023-02-02T17:12:35.114Z,4.40
2023-02-02T17:15:24.571Z,4.50
2023-02-02T17:17:54.112Z,4.50
2023-02-02T17:20:23.205Z,4.50
2023-02-02T17:22:53.744Z,4.50
2023-02-02T17:25:27.123Z,4.50
2023-02-02T17:27:56.001Z,4.50
2023-02-02T17:30:23.982Z,4.50
2023-02-02T17:32:53.123Z,4.60
2023-02-02T17:35:23.455Z,4.50
2023-02-02T17:37:52.761Z,4.60
2023-02-02T17:40:23.369Z,4.70
2023-02-02T17:42:53.166Z,4.60
2023-02-02T17:45:24.085Z,4.70
2023-02-02T17:47:53.526Z,4.70
2023-02-02T17:50:21.729Z,4.70
2023-02-02T17:52:50.298Z,4.80
2023-02-02T17:55:22.011Z,4.70
2023-02-02T17:57:50.351Z,4.70
2023-02-02T18:00:19.699Z,4.70
2023-02-02T18:02:49.697Z,4.70
2023-02-02T18:05:19.462Z,4.70
2023-02-02T18:07:47.396Z,4.70
2023-02-02T18:10:16.490Z,4.70
2023-02-02T18:12:44.535Z,4.70
2023-02-02T18:15:14.543Z,4.80
2023-02-02T18:17:42.630Z,4.70
2023-02-02T18:20:13.042Z,4.70
2023-02-02T18:22:44.088Z,4.70
2023-02-02T18:25:12.010Z,4.70
2023-02-02T18:27:39.881Z,4.70
2023-02-02T18:30:08.660Z,4.70
2023-02-02T18:32:38.484Z,4.60
2023-02-02T18:35:07.572Z,4.50
2023-02-02T18:37:35.645Z,4.60
2023-02-02T18:40:07.291Z,4.60
2023-02-02T18:42:36.466Z,4.50
2023-02-02T18:45:05.267Z,4.40
2023-02-02T18:47:33.083Z,4.30
2023-02-02T18:50:00.874Z,4.30
2023-02-02T18:52:32.099Z,4.40
2023-02-02T18:54:59.949Z,4.40
2023-02-02T18:57:30.259Z,4.40
2023-02-02T18:59:58.110Z,4.30
2023-02-02T19:02:26.424Z,4.30
2023-02-02T19:05:11.920Z,4.30
2023-02-02T19:07:58.998Z,4.30
2023-02-02T19:10:28.192Z,4.30
2023-02-02T19:13:03.493Z,4.30
2023-02-02T19:15:41.567Z,4.20
2023-02-02T19:18:14.393Z,4.20
2023-02-02T19:20:43.138Z,4.10
2023-02-02T19:23:13.903Z,4.20
2023-02-02T19:25:45.594Z,4.30
2023-02-02T19:28:22.448Z,4.30
2023-02-02T19:30:51.325Z,4.20
2023-02-02T19:33:19.766Z,4.10
2023-02-02T19:35:52.361Z,4.20
2023-02-02T19:38:20.585Z,4.30
2023-02-02T19:40:48.778Z,4.30
2023-02-02T19:43:26.190Z,4.30
2023-02-02T19:45:54.597Z,4.30
2023-02-02T19:48:25.646Z,4.30
2023-02-02T19:50:54.796Z,4.20
2023-02-02T19:53:25.051Z,4.30
2023-02-02T19:55:53.843Z,4.30
2023-02-02T19:58:25.158Z,4.30
2023-02-02T20:00:54.748Z,4.30
2023-02-02T20:03:28.463Z,4.30
2023-02-02T20:05:58.104Z,4.20
2023-02-02T20:08:31.768Z,4.30
2023-02-02T20:11:01.190Z,4.30
2023-02-02T20:13:36.565Z,4.20
2023-02-02T20:16:06.331Z,4.20
2023-02-02T20:18:42.552Z,4.20
2023-02-02T20:21:19.460Z,4.20
2023-02-02T20:23:48.030Z,4.30
2023-02-02T20:26:25.905Z,4.30
2023-02-02T20:28:57.421Z,4.30
2023-02-02T20:31:28.680Z,4.40
2023-02-02T20:33:58.261Z,4.30
2023-02-02T20:36:35.528Z,4.30
2023-02-02T20:39:22.967Z,4.30
2023-02-02T20:41:51.983Z,4.30
2023-02-02T20:44:21.320Z,4.30
2023-02-02T20:46:49.333Z,4.40
2023-02-02T20:49:17.453Z,4.40
2023-02-02T20:51:45.346Z,4.30
2023-02-02T20:54:13.563Z,4.40
2023-02-02T20:56:41.507Z,4.40
2023-02-02T20:59:09.393Z,4.40
2023-02-02T21:01:38.965Z,4.40
2023-02-02T21:04:07.344Z,4.40
2023-02-02T21:06:36.051Z,4.40
2023-02-02T21:09:04.960Z,4.40
2023-02-02T21:11:32.865Z,4.40
2023-02-02T21:14:01.046Z,4.30
2023-02-02T21:16:29.102Z,4.30
2023-02-02T21:18:58.505Z,4.40
2023-02-02T21:21:26.549Z,4.30
2023-02-02T21:23:56.126Z,4.40
2023-02-02T21:26:27.100Z,4.40
2023-02-02T21:28:55.046Z,4.40
2023-02-02T21:31:23.140Z,4.40
2023-02-02T21:33:51.002Z,4.40
2023-02-02T21:36:30.624Z,4.40
2023-02-02T21:39:08.558Z,4.40
2023-02-02T21:41:36.512Z,4.40
2023-02-02T21:44:10.400Z,4.40
2023-02-02T21:46:39.705Z,4.40
2023-02-02T21:49:18.700Z,4.40
2023-02-02T21:51:48.088Z,4.40
2023-02-02T21:54:21.878Z,4.50
2023-02-02T21:56:50.822Z,4.50
2023-02-02T21:59:20.627Z,4.40
2023-02-02T22:01:50.566Z,4.40
2023-02-02T22:04:24.022Z,4.50
2023-02-02T22:06:54.527Z,4.50
2023-02-02T22:09:24.800Z,4.40
2023-02-02T22:11:56.619Z,4.50
2023-02-02T22:14:28.249Z,4.50
2023-02-02T22:16:59.044Z,4.40
2023-02-02T22:19:30.474Z,4.40
2023-02-02T22:22:13.014Z,4.50
2023-02-02T22:24:40.923Z,4.50
2023-02-02T22:27:20.316Z,4.50
2023-02-02T22:29:48.416Z,4.50
2023-02-02T22:32:16.316Z,4.50
2023-02-02T22:34:44.148Z,4.50
2023-02-02T22:37:13.294Z,4.50
2023-02-02T22:39:42.651Z,4.50
2023-02-02T22:42:10.810Z,4.60
2023-02-02T22:44:38.577Z,4.50
2023-02-02T22:47:06.451Z,4.60
2023-02-02T22:49:34.289Z,4.50
2023-02-02T22:52:02.051Z,4.60
2023-02-02T22:54:31.863Z,4.50
2023-02-02T22:56:59.721Z,4.50
2023-02-02T22:59:27.478Z,4.60
2023-02-02T23:01:55.283Z,4.60
2023-02-02T23:04:23.168Z,4.60
2023-02-02T23:06:50.945Z,4.60
2023-02-02T23:09:18.697Z,4.70
2023-02-02T23:11:49.399Z,4.70
2023-02-02T23:14:17.374Z,4.50
2023-02-02T23:16:45.183Z,4.60
2023-02-02T23:19:13.132Z,4.70
2023-02-02T23:21:40.982Z,4.70
2023-02-02T23:24:09.573Z,4.70
2023-02-02T23:26:37.411Z,4.70
2023-02-02T23:29:06.586Z,4.80
2023-02-02T23:31:34.600Z,4.80
2023-02-02T23:34:02.603Z,4.80
2023-02-02T23:36:30.425Z,4.80
2023-02-02T23:38:58.229Z,4.80
2023-02-02T23:41:26.081Z,4.70
2023-02-02T23:43:54.256Z,4.70
2023-02-02T23:46:24.152Z,4.70
2023-02-02T23:48:53.659Z,4.70
2023-02-02T23:51:21.742Z,4.70
2023-02-02T23:53:49.688Z,4.70
2023-02-02T23:56:18.373Z,4.80
2023-02-02T23:58:46.167Z,4.70
